Garin, Argentina
Current Conditions -  °F | °C
As of 5:00 PM on Saturday 20 Dec 2014 (Local Time) from SADF Reporting Station
Broken Clouds Broken Clouds  
Wind Chill: 73°   Ceiling: 2800
Heat Index: 73°   Visibility: 6mi
Dew Point: 64°   Wind: 7mph
Humidity: 73%   Direction: 90°E
Pressure: 29.53"   Gusts: NA
Location:  34.43°S, 58.73°W
Report Text: SADF 202000Z 09006KT 050V160 9999 FEW025 BKN028 23/18 Q1000
Loading
Personal Weather Stations






























Interactive Weather Map New forecast layout! Learn more

10-Day Weather Forecast

Advertisements
Track Severe Weather on mobile